Wetterdaten: aktuell Donnerstag, 14.10.2021 07:00
Datum Zeit Temp. A. GH5 cm Aussen Res Temp4 neu Temp5 neu Feuchte A. Feuchte 2 Feuchte 3 Feuchte 4 Feuchte 5 Luftdruck Regen Wind Richtung Richtung Windben
14.10.2021 07:00 2,4 C 2,7 C 1,7 C 1,8 C 1,9 C 84 % 75 % 59 % 84 % 85 % 1021,6 hPa 0,0 mm 0,0 km/h O 90 0,0 km/h
14.10.2021 06:00 2,5 C 3,0 C 2,0 C 2,1 C 2,1 C 84 % 74 % 58 % 85 % 84 % 1021,1 hPa 0,0 mm 0,4 km/h W-SW 247 2,7 km/h
14.10.2021 05:00 3,0 C 3,6 C 2,4 C 2,5 C 2,6 C 83 % 73 % 58 % 83 % 83 % 1021,7 hPa 0,0 mm 0,4 km/h O 90 0,0 km/h
14.10.2021 04:00 2,9 C 3,5 C 2,4 C 2,4 C 2,5 C 82 % 73 % 57 % 83 % 83 % 1021,8 hPa 0,0 mm 0,0 km/h O-SO 112 0,0 km/h
14.10.2021 03:00 3,2 C 3,7 C 2,7 C 2,8 C 2,9 C 80 % 71 % 56 % 80 % 80 % 1022,3 hPa 0,0 mm 0,2 km/h O-NO 67 2,1 km/h
14.10.2021 02:00 3,5 C 3,8 C 2,9 C 3,0 C 3,0 C 79 % 70 % 55 % 79 % 79 % 1022,1 hPa 0,0 mm 0,6 km/h S-SO 157 2,3 km/h
14.10.2021 01:00 4,3 C 4,4 C 3,8 C 3,7 C 3,8 C 76 % 68 % 52 % 76 % 76 % 1021,7 hPa 0,0 mm 1,9 km/h SO 135 0,0 km/h
14.10.2021 00:00 5,7 C 6,4 C 5,3 C 5,2 C 5,3 C 72 % 66 % 50 % 73 % 73 % 1022,2 hPa 0,0 mm 1,2 km/h S-SO 157 0,0 km/h
13.10.2021 23:00 6,2 C 6,7 C 5,8 C 5,9 C 5,9 C 71 % 66 % 49 % 72 % 72 % 1021,8 hPa 0,0 mm 0,6 km/h S 180 0,0 km/h
13.10.2021 22:00 6,0 C 7,4 C 5,7 C 6,0 C 6,0 C 72 % 65 % 49 % 71 % 72 % 1021,8 hPa 0,0 mm 2,5 km/h S-SO 157 6,6 km/h
13.10.2021 21:00 4,3 C 4,0 C 3,7 C 3,7 C 3,8 C 76 % 66 % 50 % 75 % 74 % 1021,4 hPa 0,0 mm 1,5 km/h O 90 2,3 km/h
13.10.2021 20:00 5,2 C 5,1 C 4,6 C 4,5 C 4,6 C 71 % 62 % 47 % 72 % 70 % 1020,8 hPa 0,0 mm 0,4 km/h W-SW 247 0,0 km/h
13.10.2021 19:00 7,0 C 6,6 C 6,5 C 6,3 C 6,4 C 62 % 59 % 42 % 63 % 62 % 1020,1 hPa 0,0 mm 0,0 km/h S-SW 202 0,0 km/h
13.10.2021 18:00 8,7 C 9,0 C 8,2 C 8,1 C 8,2 C 57 % 58 % 39 % 57 % 58 % 1019,4 hPa 0,0 mm 4,8 km/h SO 135 9,8 km/h
13.10.2021 17:00 10,5 C 10,2 C 9,9 C 9,7 C 9,8 C 55 % 57 % 38 % 55 % 55 % 1019,2 hPa 0,0 mm 5,8 km/h SO 135 7,0 km/h
13.10.2021 16:00 12,3 C 11,6 C 11,5 C 11,2 C 11,3 C 49 % 56 % 35 % 51 % 49 % 1018,6 hPa 0,0 mm 7,3 km/h S 180 9,3 km/h
13.10.2021 15:00 14,3 C 14,1 C 13,5 C 13,6 C 13,6 C 44 % 55 % 30 % 45 % 46 % 1018,1 hPa 0,0 mm 5,6 km/h S-SW 202 9,3 km/h
13.10.2021 14:00 13,3 C 13,1 C 12,6 C 12,6 C 12,7 C 43 % 56 % 33 % 43 % 45 % 1017,9 hPa 0,0 mm 6,4 km/h S 180 3,5 km/h
13.10.2021 13:00 12,4 C 12,5 C 11,8 C 11,6 C 11,6 C 46 % 58 % 36 % 48 % 48 % 1017,9 hPa 0,0 mm 6,6 km/h W 270 2,9 km/h
13.10.2021 12:00 13,1 C 13,0 C 12,5 C 12,7 C 12,6 C 46 % 60 % 37 % 46 % 49 % 1017,6 hPa 0,0 mm 9,7 km/h S-SO 157 8,9 km/h
13.10.2021 11:00 12,2 C 11,8 C 11,7 C 11,9 C 11,7 C 50 % 67 % 41 % 50 % 55 % 1017,2 hPa 0,0 mm 8,3 km/h SW 225 3,3 km/h
13.10.2021 10:00 10,7 C 11,1 C 10,4 C 11,1 C 10,5 C 59 % 75 % 49 % 60 % 69 % 1016,9 hPa 0,0 mm 5,6 km/h NO 45 3,9 km/h
13.10.2021 09:00 6,4 C 7,9 C 6,0 C 6,0 C 6,0 C 79 % 79 % 60 % 80 % 84 % 1016,2 hPa 0,0 mm 1,4 km/h N-NW 337 4,8 km/h
13.10.2021 08:00 6,0 C 6,4 C 5,5 C 5,5 C 5,5 C 84 % 80 % 65 % 87 % 88 % 1015,2 hPa 0,0 mm 0,8 km/h N 360 3,1 km/h
_ Min-Zeit 06:40 06:35 06:50 06:50 07:00 14:20 14:40 14:10 13:35 14:25 08:00 - 08:35 - - 08:05
Minimum _ 2,3 C 2,7 C 1,7 C 1,8 C 1,9 C 40 % 54 % 30 % 41 % 43 % 1015,2 hPa - 0,0 km/h - - 0,0 km/h
_ Max-Zeit 15:05 15:00 15:05 15:05 15:05 08:00 08:00 08:00 08:00 08:00 02:25 08:00 12:10 - - 10:55
Maximum _ 14,4 C 14,1 C 13,6 C 13,8 C 13,9 C 84 % 80 % 65 % 87 % 88 % 1022,4 hPa 0,0 mm 10,8 km/h
SO
- - 30,3 km/h
O-NO
Durchschnitt _ 7,4 C 7,6 C 6,8 C 6,9 C 6,9 C 67 % 67 % 48 % 68 % 69 % 1019,5 hPa #0,0 mm 2,9 km/h SO - 4,2 km/h